Latest Coastal Weather Observations for Wyndham Airport

IDD60701

Issued at 1:51 am CST Thursday 29 January 2015 (issued every 10 minutes, with the page automatically refreshed every 10 minutes)

About coastal observations | Map of coastal stations | Coastal observations for NT | Marine services | Other Formats
Station Details ID: 001006 Name: WYNDHAM AERO Lat: -15.51 Lon: 128.15 Height: 3.8 m
Data from the previous 72 hours. | See also: Recent months for locations in Northern Territory
Date/Time
CST
Temp

°C
Wind Pressure Rain
since 9am
mm
Weather Cloud Vis
km
Sea
Height
m
Swell
Dir
 
Speed
knots
Gust
knots
hPa Trend Height
m
Period
s
Dir
29/01:30am 26.5 CALM 0 0 1005.5 - 0.0 - - - - - - -
29/01:00am 26.6 W 2 5 1005.8 - 0.0 - - - - - - -
29/12:30am 26.7 WSW 4 6 1006.5 - 0.0 - - - - - - -
29/12:00am 26.7 SW 6 7 1006.7 - 0.0 - - - - - - -
 
Date/Time
CST
Temp

°C
Wind Pressure Rain
since 9am
mm
Weather Cloud Vis
km
Sea
Height
m
Swell
Dir
 
Speed
knots
Gust
knots
hPa Trend Height
m
Period
s
Dir
28/11:30pm 26.9 WSW 10 13 1006.9 - 0.0 - - - - - - -
28/11:00pm 28.3 W 4 7 1006.9 - 0.0 - - - - - - -
28/10:30pm 29.1 ESE 7 11 1006.6 - 0.0 - - - - - - -
28/10:00pm 29.1 ESE 7 9 1006.3 - 0.0 - - - - - - -
28/09:30pm 29.7 SE 6 8 1005.9 - 0.0 - - - - - - -
28/09:00pm 29.5 S 4 6 1005.4 - 0.0 - - - - - - -
28/08:30pm 29.7 E 7 8 1004.6 - 0.0 - - - - - - -
28/08:00pm 29.7 E 10 12 1004.3 - 0.0 - - - - - - -
28/07:30pm 29.7 ESE 12 15 1003.9 - 0.0 - - - - - - -
28/07:00pm 30.6 ESE 14 17 1003.4 - 0.0 - - - - - - -
28/06:30pm 32.5 NE 10 13 1002.3 - 0.0 - - - - - - -
28/06:00pm 32.0 NNE 11 15 1002.0 - 0.0 - - - - - - -
28/05:30pm 32.3 NNE 14 19 1001.6 - 0.0 - - - - - - -
28/05:00pm 34.3 N 12 15 1001.5 - 0.0 - - - - - - -
28/04:30pm 36.4 ESE 3 8 1001.6 - 0.0 - - - - - - -
28/04:00pm 36.1 SSE 6 9 1001.6 - 0.0 - - - - - - -
28/03:30pm 35.5 NE 6 10 1002.2 - 0.0 - - - - - - -
28/03:00pm 35.8 E 7 13 1002.7 - 0.0 - - - - - - -
28/02:30pm 35.3 ENE 6 11 1002.9 - 0.0 - - - - - - -
28/02:00pm 35.7 SE 7 10 1003.5 - 0.0 - - - - - - -
28/01:30pm 34.4 SE 5 9 1004.0 - 0.0 - - - - - - -
28/01:00pm 34.3 E 6 9 1004.5 - 0.0 - - - - - - -
28/12:30pm 33.9 ESE 7 10 1005.0 - 0.0 - - - - - - -
28/12:00pm 33.0 SE 5 8 1005.5 - 0.0 - - - - - - -
28/11:30am 31.9 SSE 4 6 1006.0 - 0.0 - - - - - - -
28/11:00am 31.5 SW 3 7 1006.4 - 0.0 - - - - - - -
28/10:30am 30.5 SSW 3 6 1006.7 - 0.0 - - - - - - -
28/10:00am 30.0 SSW 4 6 1006.7 - 0.0 - - - - - - -
28/09:30am 29.4 S 5 7 1006.6 - 0.0 - - - - - - -
28/09:00am 28.6 WSW 4 6 1006.4 - 0.0 - - - - - - -
28/08:30am 28.1 NW 1 3 1006.3 - 0.0 - - - - - - -
28/08:00am 27.3 WNW 3 4 1006.2 - 0.0 - - - - - - -
28/07:30am 26.8 CALM 0 0 1005.9 - 0.0 - - - - - - -
28/07:00am 25.9 CALM 0 0 1005.4 - 0.0 - - - - - - -
28/06:30am 26.0 E 2 3 1005.2 - 0.0 - - - - - - -
28/06:00am 26.4 NE 2 4 1005.0 - 0.0 - - - - - - -
28/05:30am 26.1 CALM 0 0 1004.9 - 0.0 - - - - - - -
28/05:00am 26.0 SSW 3 4 1004.8 - 0.0 - - - - - - -
28/04:30am 26.1 SSW 5 6 1005.0 - 0.0 - - - - - - -
28/04:00am 26.6 CALM 0 0 1005.2 - 0.0 - - - - - - -
28/03:30am 26.7 E 3 5 1005.1 - 0.0 - - - - - - -
28/03:00am 26.7 SE 5 7 1004.9 - 0.0 - - - - - - -
28/02:30am 26.7 ESE 6 7 1004.9 - 0.0 - - - - - - -
28/02:00am 26.7 ESE 5 6 1005.0 - 0.0 - - - - - - -
28/01:30am 26.8 E 5 6 1005.4 - 0.0 - - - - - - -
28/01:00am 26.6 E 4 5 1005.9 - 0.0 - - - - - - -
28/12:30am 27.2 E 4 6 1006.5 - 0.0 - - - - - - -
28/12:00am 26.9 CALM 0 0 1007.2 - 0.0 - - - - - - -
 
Date/Time
CST
Temp

°C
Wind Pressure Rain
since 9am
mm
Weather Cloud Vis
km
Sea
Height
m
Swell
Dir
 
Speed
knots
Gust
knots
hPa Trend Height
m
Period
s
Dir
27/11:30pm 27.5 CALM 0 0 1007.8 - 0.0 - - - - - - -
27/11:00pm 27.5 CALM 0 0 1007.9 - 0.0 - - - - - - -
27/10:30pm 27.6 CALM 0 0 1008.0 - 0.0 - - - - - - -
27/10:00pm 27.5 CALM 0 0 1007.9 - 0.0 - - - - - - -
27/09:30pm 27.6 SW 3 4 1007.7 - 0.0 - - - - - - -
27/09:00pm 27.7 W 4 5 1007.4 - 0.0 - - - - - - -
27/08:30pm 27.8 SW 4 4 1006.6 - 0.0 - - - - - - -
27/08:00pm 27.9 SSW 3 5 1006.3 - 0.0 - - - - - - -
27/07:30pm 28.0 SSW 4 5 1005.9 - 0.0 - - - - - - -
27/07:00pm 28.1 SSW 7 8 1005.5 - 0.0 - - - - - - -
27/06:30pm 28.3 SW 8 10 1005.1 - 0.0 - - - - - - -
27/06:00pm 28.6 SSW 8 10 1004.5 - 0.0 - - - - - - -
27/05:30pm 28.6 S 9 11 1004.2 - 0.0 - - - - - - -
27/05:00pm 28.7 SSW 8 11 1004.0 - 0.0 - - - - - - -
27/04:30pm 28.8 S 8 11 1003.8 - 0.0 - - - - - - -
27/04:00pm 29.3 S 7 11 1004.7 - 0.0 - - - - - - -
27/03:30pm 29.2 S 8 15 1004.8 - 0.0 - - - - - - -
27/03:00pm 29.5 SSE 12 17 1004.6 - 0.0 - - - - - - -
27/02:30pm 30.7 SSW 15 19 1004.8 - 0.0 - - - - - - -
27/02:00pm 31.2 SSW 11 14 1005.5 - 0.0 - - - - - - -
27/01:30pm 31.5 SSW 11 14 1005.5 - 0.0 - - - - - - -
27/01:00pm 31.6 SW 8 12 1005.8 - 0.0 - - - - - - -
27/12:30pm 32.4 SSW 6 8 1006.2 - 0.0 - - - - - - -
27/12:00pm 31.7 SSW 5 7 1007.0 - 0.0 - - - - - - -
27/11:30am 31.3 SSW 7 11 1007.4 - 0.0 - - - - - - -
27/11:00am 30.7 SSW 5 9 1007.7 - 0.0 - - - - - - -
27/10:30am 29.8 SW 6 8 1008.1 - 0.6 Recent precip. - - - - - -
27/10:00am 29.4 SW 6 9 1008.4 - 0.4 - - - - - - -
27/09:30am 28.7 SSW 6 8 1008.3 - 0.4 - - - - - - -
27/09:00am 29.3 ESE 1 3 1008.2 - 0.4 - - - - - - -
27/08:30am 28.0 CALM 0 0 1008.1 - 0.4 - - - - - - -
27/08:00am 27.2 WNW 3 4 1007.6 - 0.4 - - - - - - -
27/07:30am 27.1 W 5 7 1007.4 - 0.4 - - - - - - -
27/07:00am 26.5 NW 4 5 1007.2 - 0.4 - - - - - - -
27/06:30am 26.6 WNW 2 4 1006.8 - 0.4 - - - - - - -
27/06:00am 26.6 WNW 3 5 1006.4 - 0.4 - - - - - - -
27/05:30am 26.5 N 3 5 1005.9 - 0.4 - - - - - - -
27/05:00am 26.1 NW 4 5 1005.7 - 0.4 - - - - - - -
27/04:30am 26.0 NNW 3 5 1005.5 - 0.4 - - - - - - -
27/04:00am 25.8 CALM 0 0 1005.3 - 0.4 - - - - - - -
27/03:30am 25.8 SSW 3 5 1005.1 - 0.4 - - - - - - -
27/03:00am 26.0 W 7 9 1004.9 - 0.4 - - - - - - -
27/02:30am 26.1 NW 5 6 1004.7 - 0.4 - - - - - - -
27/02:00am 25.8 WNW 2 4 1005.3 - 0.4 - - - - - - -
27/01:30am 25.8 W 5 7 1005.8 - 0.4 - - - - - - -
27/01:00am 25.9 WSW 7 11 1006.1 - 0.4 - - - - - - -
27/12:30am 26.4 WNW 4 5 1006.3 - 0.4 - - - - - - -
27/12:00am 26.1 WNW 3 4 1006.8 - 0.4 - - - - - - -
 
Date/Time
CST
Temp

°C
Wind Pressure Rain
since 9am
mm
Weather Cloud Vis
km
Sea
Height
m
Swell
Dir
 
Speed
knots
Gust
knots
hPa Trend Height
m
Period
s
Dir
26/11:30pm 26.0 NW 3 4 1007.8 - 0.0 - - - - - - -
26/11:00pm 26.3 WSW 9 11 1008.5 - 0.0 - - - - - - -
26/10:30pm 27.4 WNW 8 12 1008.9 - 0.0 - - - - - - -
26/10:00pm 27.7 SW 10 12 1008.7 - 0.0 - - - - - - -
26/09:30pm 28.6 SSW 8 11 1008.1 - 0.0 - - - - - - -
26/09:00pm 28.6 SSW 13 17 1007.5 - 0.0 - - - - - - -
26/08:30pm 30.7 NW 7 10 1006.8 - 0.0 - - - - - - -
26/08:00pm 30.7 NNW 9 12 1006.5 - 0.0 - - - - - - -
26/07:30pm 30.9 N 11 16 1006.0 - 0.0 - - - - - - -
26/07:00pm 31.6 N 10 14 1005.1 - 0.0 - - - - - - -
26/06:30pm 32.8 N 13 17 1004.5 - 0.0 - - - - - - -
26/06:00pm 33.1 N 13 17 1004.1 - 0.0 - - - - - - -
26/05:30pm 33.5 N 12 16 1003.7 - 0.0 - - - - - - -
26/05:00pm 33.5 NNE 11 14 1003.3 - 0.0 - - - - - - -
26/04:30pm 34.0 N 9 12 1003.4 - 0.0 - - - - - - -
26/04:00pm 36.7 S 4 7 1003.9 - 0.0 - - - - - - -
26/03:30pm 36.3 SSE 4 6 1004.7 - 0.0 - - - - - - -
26/03:00pm 35.4 SSE 5 10 1005.3 - 0.0 - - - - - - -
26/02:30pm 34.5 SE 4 8 1005.7 - 0.0 - - - - - - -
26/02:00pm 35.2 NNE 4 8 1006.4 - 0.0 - - - - - - -
26/01:30pm 35.0 E 9 12 1007.0 - 0.0 - - - - - - -
26/01:00pm 33.8 SSE 3 7 1007.5 - 0.0 - - - - - - -
26/12:30pm 32.9 SE 6 8 1007.9 - 0.0 - - - - - - -
26/12:00pm 32.4 SSE 7 9 1008.2 - 0.0 - - - - - - -
26/11:30am 33.0 ESE 7 10 1008.7 - 0.0 - - - - - - -
26/11:00am 31.9 ESE 8 10 1008.9 - 0.0 - - - - - - -
26/10:30am 31.8 E 8 11 1009.3 - 1.0 - - - - - - -
26/10:00am 31.1 ESE 4 7 1009.4 - 1.0 - - - - - - -
26/09:30am 30.2 SSE 5 7 1009.3 - 1.0 - - - - - - -
26/09:00am 29.0 E 1 4 1009.2 - 1.0 - - - - - - -
26/08:30am 27.8 CALM 0 3 1008.7 - 1.0 - - - - - - -
26/08:00am 27.0 NW 1 4 1008.5 - 1.0 - - - - - - -
26/07:30am 26.5 WNW 3 6 1008.3 - 1.0 - - - - - - -
26/07:00am 26.2 NNW 5 6 1007.6 - 1.0 - - - - - - -
26/06:30am 26.2 W 3 5 1007.3 - 1.0 - - - - - - -
26/06:00am 26.6 WSW 4 5 1006.9 - 1.0 - - - - - - -
26/05:30am 26.6 WSW 5 7 1006.9 - 1.0 - - - - - - -
26/05:00am 26.8 ESE 5 7 1006.9 - 1.0 - - - - - - -
26/04:30am 26.8 E 7 9 1007.1 - 1.0 - - - - - - -
26/04:00am 27.3 ESE 9 11 1007.8 - 1.0 - - - - - - -
26/03:30am 27.3 S 7 11 1007.9 - 1.0 - - - - - - -

Other Formats:

Comma delimited format used in spreadsheet applications
http://www.bom.gov.au/fwo/IDD60701/IDD60701.95214.axf

JavaScript Object Notation format (JSON) in row-major order
http://www.bom.gov.au/fwo/IDD60701/IDD60701.95214.json